Airfield :







YOU CAN JOIN US ON...

 
LOGIN :

Register | Disclaimer

   EN    FR    IT 

 









Legend :    VFR   Marginal VFR   IFR   Intensive IFR   Very Intensive IFR
Visi :
Ceiling :
>= 8 km
>= 3000ft
5 to 8 km
1000 to 3000 ft
1500m to 5 km
500 to 1000 ft
800 to 1500m
200 to 500 ft
< 800m
< 200 ft
Symbols :   Thunderstorms  Fog  Heavy snow  Heavy precipitations  Wind > 20 kt






- Airport Elevation : 477 ft
- IATA code : YHZ


CYHZ - Halifax Stanfield Int.

CURRENT METAR :
  • 062000Z 27014KT 15SM SCT032 BKN170 M01/M05 A2984 RMK SC3AC3 SLP113

EXPIRED METARs :
  • 061900Z 26013G20KT 15SM BKN032 M00/M05 A2982 RMK CU6 SLP108
  • 061800Z 27016G22KT 15SM BKN026 M00/M05 A2980 RMK SC6 SLP098

TAF TAF CYHZ
Valid from the 06 at 18:00 until the 07 at 18:00 UTC


061738Z 0618/0718 28012G22KT P6SM BKN025
TEMPO 0618/0704 5SM -SHSN BKN020
BECMG 0622/0624 24010KT
FM070400 24008KT 5SM -SN SCT008 OVC015
FM070700 33005KT 21/2SM -SN BKN008 OVC015
FM071200 33010G20KT P6SM -SN BKN015
FM071400 32012G22KT P6SM BKN025 RMK NXT FCST BY 062100Z



MET'MAP, your aeronautical weather chart ! - Copyright ORBIFLY December 2007 - Disclaimer

ORBIFLY MET'MAP TEAM :

Programming & Development : Alexandra Zaïnal
Concept & original design : Baudouin d'Aumeries
Assistance for programming : Marc-Olivier Méhu
Technical & hardware support : Manuel Goepfert

Contact : metmap@orbifly.com




SOURCES & CREDITS :

   NOAA